createdAt,value
2023-03-17T00:01:44.850Z,1.90
2023-03-17T00:04:13.249Z,2.28
2023-03-17T00:06:42.686Z,2.00
2023-03-17T00:09:14.685Z,2.38
2023-03-17T00:11:42.873Z,2.00
2023-03-17T00:14:10.857Z,1.80
2023-03-17T00:16:41.499Z,1.88
2023-03-17T00:19:16.622Z,1.83
2023-03-17T00:21:47.162Z,1.60
2023-03-17T00:24:15.978Z,1.90
2023-03-17T00:26:44.205Z,1.80
2023-03-17T00:29:13.341Z,1.95
2023-03-17T00:31:41.369Z,2.00
2023-03-17T00:34:12.234Z,1.70
2023-03-17T00:36:41.412Z,1.90
2023-03-17T00:41:43.735Z,2.10
2023-03-17T00:44:11.849Z,2.13
2023-03-17T00:46:41.619Z,2.07
2023-03-17T00:51:44.946Z,1.92
2023-03-17T00:54:15.576Z,1.70
2023-03-17T00:56:45.238Z,1.90
2023-03-17T00:59:21.704Z,1.98
2023-03-17T01:01:50.044Z,2.17
2023-03-17T01:04:18.157Z,2.08
2023-03-17T01:06:47.932Z,1.93
2023-03-17T01:09:19.447Z,1.73
2023-03-17T01:11:48.595Z,1.77
2023-03-17T01:14:17.058Z,2.00
2023-03-17T01:16:45.179Z,2.20
2023-03-17T01:19:14.095Z,1.90
2023-03-17T01:21:42.676Z,1.70
2023-03-17T01:24:12.045Z,1.73
2023-03-17T01:26:42.141Z,1.92
2023-03-17T01:29:10.284Z,2.10
2023-03-17T01:31:39.207Z,1.70
2023-03-17T01:34:07.213Z,1.73
2023-03-17T01:36:35.823Z,1.77
2023-03-17T01:39:05.414Z,2.20
2023-03-17T01:41:35.503Z,1.97
2023-03-17T01:44:05.256Z,2.00
2023-03-17T01:46:35.388Z,2.10
2023-03-17T01:49:26.782Z,2.00
2023-03-17T01:52:06.077Z,1.90
2023-03-17T01:54:41.057Z,1.90
2023-03-17T01:57:12.779Z,2.57
2023-03-17T01:59:47.125Z,2.20
2023-03-17T02:02:20.125Z,2.03
2023-03-17T02:04:48.185Z,1.60
2023-03-17T02:07:16.628Z,1.83
2023-03-17T02:09:44.767Z,2.00
2023-03-17T02:12:13.555Z,1.90
2023-03-17T02:14:44.161Z,1.67
2023-03-17T02:17:14.769Z,2.00
2023-03-17T02:19:43.793Z,1.73
2023-03-17T02:22:13.481Z,2.05
2023-03-17T02:24:44.741Z,1.80
2023-03-17T02:27:15.075Z,1.83
2023-03-17T02:29:46.309Z,1.73
2023-03-17T02:32:16.001Z,1.57
2023-03-17T02:34:44.164Z,1.70
2023-03-17T02:37:14.201Z,1.60
2023-03-17T02:39:42.637Z,1.93
2023-03-17T02:42:11.445Z,1.70
2023-03-17T02:44:39.577Z,1.53
2023-03-17T02:47:08.649Z,1.60
2023-03-17T02:49:38.388Z,1.93
2023-03-17T02:52:07.285Z,1.67
2023-03-17T02:54:36.846Z,1.80
2023-03-17T02:57:04.938Z,1.60
2023-03-17T02:59:32.855Z,1.80
2023-03-17T03:02:01.052Z,1.77
2023-03-17T03:04:28.993Z,1.80
2023-03-17T03:06:56.991Z,2.00
2023-03-17T03:09:25.875Z,1.70
2023-03-17T03:11:55.223Z,1.92
2023-03-17T03:14:23.208Z,1.60
2023-03-17T03:16:51.225Z,1.93
2023-03-17T03:19:19.150Z,2.10
2023-03-17T03:21:47.284Z,1.70
2023-03-17T03:24:15.182Z,1.90
2023-03-17T03:26:43.141Z,1.87
2023-03-17T03:29:12.607Z,1.80
2023-03-17T03:31:40.634Z,1.60
2023-03-17T03:34:08.549Z,1.97
2023-03-17T03:36:37.023Z,1.70
2023-03-17T03:39:05.149Z,2.07
2023-03-17T03:41:33.083Z,1.70
2023-03-17T03:44:01.040Z,1.90
2023-03-17T03:46:30.515Z,2.10
2023-03-17T03:48:58.471Z,1.53
2023-03-17T03:51:26.539Z,2.20
2023-03-17T03:53:54.463Z,1.83
2023-03-17T03:56:22.340Z,1.83
2023-03-17T03:58:51.290Z,1.83
2023-03-17T04:01:19.688Z,1.90
2023-03-17T04:03:48.991Z,1.80
2023-03-17T04:06:17.331Z,1.60
2023-03-17T04:08:45.272Z,1.43
2023-03-17T04:11:13.191Z,1.88
2023-03-17T04:13:41.101Z,1.77
2023-03-17T04:16:09.273Z,1.50
2023-03-17T04:18:37.290Z,1.60
2023-03-17T04:21:08.358Z,1.80
2023-03-17T04:23:36.610Z,1.73
2023-03-17T04:26:05.106Z,1.30
2023-03-17T04:28:33.110Z,1.80
2023-03-17T04:31:01.549Z,1.43
2023-03-17T04:33:29.530Z,1.50
2023-03-17T04:35:58.519Z,1.40
2023-03-17T04:38:27.924Z,1.70
2023-03-17T04:40:56.147Z,1.90
2023-03-17T04:43:24.476Z,1.40
2023-03-17T04:45:52.479Z,1.53
2023-03-17T04:48:20.471Z,1.45
2023-03-17T04:50:48.662Z,1.50
2023-03-17T04:53:17.721Z,1.90
2023-03-17T04:55:47.231Z,1.53
2023-03-17T04:58:29.571Z,1.60
2023-03-17T05:00:58.755Z,1.70
2023-03-17T05:03:28.495Z,1.40
2023-03-17T05:05:57.410Z,1.67
2023-03-17T05:08:25.739Z,1.40
2023-03-17T05:10:56.099Z,1.63
2023-03-17T05:13:24.433Z,1.60
2023-03-17T05:15:54.265Z,1.63
2023-03-17T05:18:23.941Z,1.53
2023-03-17T05:20:51.943Z,1.57
2023-03-17T05:23:20.610Z,1.60
2023-03-17T05:25:48.501Z,1.73
2023-03-17T05:28:18.301Z,1.70
2023-03-17T05:30:46.426Z,1.40
2023-03-17T05:33:14.603Z,1.70
2023-03-17T05:35:42.675Z,1.43
2023-03-17T05:38:12.463Z,2.03
2023-03-17T05:40:40.500Z,1.63
2023-03-17T05:43:08.451Z,1.53
2023-03-17T05:45:38.038Z,2.00
2023-03-17T05:48:06.349Z,2.00
2023-03-17T05:50:34.473Z,1.60
2023-03-17T05:53:02.373Z,1.70
2023-03-17T05:55:30.278Z,1.57
2023-03-17T05:57:58.282Z,1.80
2023-03-17T06:00:27.011Z,1.50
2023-03-17T06:02:56.269Z,1.77
2023-03-17T06:05:24.194Z,1.60
2023-03-17T06:07:56.185Z,1.40
2023-03-17T06:10:25.018Z,1.57
2023-03-17T06:12:53.214Z,1.40
2023-03-17T06:15:21.865Z,1.40
2023-03-17T06:17:49.941Z,1.37
2023-03-17T06:20:19.998Z,1.40
2023-03-17T06:23:02.771Z,1.60
2023-03-17T06:25:32.507Z,1.83
2023-03-17T06:28:02.782Z,1.47
2023-03-17T06:30:31.410Z,1.60
2023-03-17T06:33:00.356Z,1.23
2023-03-17T06:35:30.461Z,1.70
2023-03-17T06:37:58.602Z,1.67
2023-03-17T06:40:26.542Z,1.47
2023-03-17T06:42:54.476Z,1.80
2023-03-17T06:45:22.378Z,1.60
2023-03-17T06:47:50.650Z,2.00
2023-03-17T06:50:18.841Z,1.67
2023-03-17T06:52:48.124Z,1.53
2023-03-17T06:55:16.253Z,1.50
2023-03-17T06:57:44.522Z,1.70
2023-03-17T07:00:14.255Z,1.53
2023-03-17T07:02:43.122Z,1.40
2023-03-17T07:05:12.689Z,1.60
2023-03-17T07:07:41.037Z,1.60
2023-03-17T07:10:13.792Z,1.70
2023-03-17T07:12:41.745Z,1.63
2023-03-17T07:15:11.108Z,2.00
2023-03-17T07:17:39.404Z,2.20
2023-03-17T07:20:07.987Z,2.83
2023-03-17T07:22:35.913Z,2.57
2023-03-17T07:25:03.918Z,3.17
2023-03-17T07:27:33.195Z,3.20
2023-03-17T07:30:02.346Z,3.33
2023-03-17T07:32:30.595Z,2.90
2023-03-17T07:34:59.544Z,3.30
2023-03-17T07:37:27.555Z,3.28
2023-03-17T07:39:56.120Z,3.07
2023-03-17T07:42:24.124Z,2.67
2023-03-17T07:44:53.510Z,2.67
2023-03-17T07:47:21.375Z,2.90
2023-03-17T07:49:49.341Z,2.90
2023-03-17T07:52:17.383Z,3.43
2023-03-17T07:54:45.370Z,3.30
2023-03-17T07:57:13.755Z,3.38
2023-03-17T07:59:41.879Z,3.30
2023-03-17T08:02:16.941Z,3.42
2023-03-17T08:04:45.681Z,3.47
2023-03-17T08:07:14.739Z,3.15
2023-03-17T08:09:42.891Z,3.28
2023-03-17T08:12:11.745Z,4.13
2023-03-17T08:14:39.659Z,3.65
2023-03-17T08:17:07.818Z,4.05
2023-03-17T08:19:37.338Z,3.38
2023-03-17T08:22:05.586Z,3.63
2023-03-17T08:24:33.714Z,4.13
2023-03-17T08:27:02.099Z,3.40
2023-03-17T08:29:30.458Z,3.28
2023-03-17T08:31:58.762Z,2.67
2023-03-17T08:34:27.306Z,3.65
2023-03-17T08:36:56.655Z,3.75
2023-03-17T08:39:25.375Z,3.78
2023-03-17T08:41:53.515Z,4.15
2023-03-17T08:44:21.884Z,3.70
2023-03-17T08:46:50.239Z,3.90
2023-03-17T08:49:18.442Z,3.53
2023-03-17T08:51:46.405Z,2.95
2023-03-17T08:54:16.309Z,3.13
2023-03-17T08:56:44.221Z,2.97
2023-03-17T08:59:12.495Z,2.42
2023-03-17T09:01:42.120Z,2.53
2023-03-17T09:04:11.094Z,2.30
2023-03-17T09:06:44.084Z,2.40
2023-03-17T09:09:18.517Z,2.30
2023-03-17T09:11:46.580Z,2.90
2023-03-17T09:14:14.446Z,2.42
2023-03-17T09:16:42.379Z,2.28
2023-03-17T09:19:10.273Z,2.60
2023-03-17T09:21:38.308Z,3.03
2023-03-17T09:24:07.267Z,2.20
2023-03-17T09:26:37.026Z,1.80
2023-03-17T09:29:05.315Z,1.98
2023-03-17T09:31:33.599Z,2.10
2023-03-17T09:34:01.538Z,2.50
2023-03-17T09:36:29.602Z,2.40
2023-03-17T09:38:57.557Z,2.60
2023-03-17T09:41:50.004Z,2.30
2023-03-17T09:44:37.994Z,2.85
2023-03-17T09:47:15.022Z,2.20
2023-03-17T09:49:48.668Z,2.13
2023-03-17T09:52:18.689Z,2.22
2023-03-17T09:54:49.684Z,2.08
2023-03-17T09:57:26.187Z,2.15
2023-03-17T10:00:01.620Z,1.80
2023-03-17T10:02:34.462Z,1.75
2023-03-17T10:05:14.995Z,1.80
2023-03-17T10:07:50.156Z,1.60
2023-03-17T10:10:24.373Z,1.80
2023-03-17T10:13:01.205Z,1.92
2023-03-17T10:15:36.108Z,2.30
2023-03-17T10:18:10.661Z,1.92
2023-03-17T10:20:50.421Z,1.38
2023-03-17T10:23:25.532Z,1.70
2023-03-17T10:25:54.794Z,1.13
2023-03-17T10:28:30.778Z,1.20
2023-03-17T10:31:07.736Z,1.35
2023-03-17T10:33:35.934Z,1.30
2023-03-17T10:36:09.688Z,1.20
2023-03-17T10:38:38.130Z,1.40
2023-03-17T10:41:09.890Z,1.10
2023-03-17T10:43:45.770Z,0.90
2023-03-17T10:46:21.625Z,1.10
2023-03-17T10:48:54.320Z,1.02
2023-03-17T10:51:31.927Z,1.33
2023-03-17T10:54:03.961Z,1.00
2023-03-17T10:56:36.187Z,1.25
2023-03-17T10:59:09.722Z,1.52
2023-03-17T11:01:40.325Z,1.33
2023-03-17T11:04:28.492Z,1.60
2023-03-17T11:06:58.438Z,1.30
2023-03-17T11:09:29.219Z,1.20
2023-03-17T11:12:06.689Z,1.08
2023-03-17T11:14:36.460Z,1.17
2023-03-17T11:17:14.662Z,1.30
2023-03-17T11:19:51.051Z,1.40
2023-03-17T11:22:26.869Z,1.35
2023-03-17T11:25:04.466Z,1.30
2023-03-17T11:27:36.050Z,1.30
2023-03-17T11:30:20.643Z,1.40
2023-03-17T11:32:56.642Z,1.00
2023-03-17T11:35:38.984Z,1.10
2023-03-17T11:38:19.565Z,1.33
2023-03-17T11:41:03.398Z,1.45
2023-03-17T11:43:38.570Z,1.25
2023-03-17T11:46:12.127Z,1.00
2023-03-17T11:48:52.983Z,1.35
2023-03-17T11:51:30.400Z,1.38
2023-03-17T11:54:09.661Z,1.00
2023-03-17T11:56:44.096Z,1.27
2023-03-17T11:59:26.209Z,1.40
2023-03-17T12:02:04.723Z,1.15
2023-03-17T12:04:37.952Z,1.15
2023-03-17T12:07:14.289Z,1.05
2023-03-17T12:09:45.684Z,1.50
2023-03-17T12:12:16.495Z,1.40
2023-03-17T12:14:48.802Z,1.17
2023-03-17T12:17:25.126Z,1.10
2023-03-17T12:20:06.776Z,1.02
2023-03-17T12:22:40.836Z,1.33
2023-03-17T12:25:16.471Z,0.95
2023-03-17T12:27:51.641Z,1.20
2023-03-17T12:30:29.233Z,1.58
2023-03-17T12:33:07.767Z,1.40
2023-03-17T12:35:38.723Z,0.95
2023-03-17T12:38:10.514Z,1.38
2023-03-17T12:40:54.657Z,1.42
2023-03-17T12:43:38.091Z,1.35
2023-03-17T12:46:19.731Z,1.27
2023-03-17T12:49:27.600Z,1.00
2023-03-17T12:52:07.839Z,1.13
2023-03-17T12:54:38.635Z,1.00
2023-03-17T12:57:13.489Z,1.00
2023-03-17T12:59:45.014Z,1.10
2023-03-17T13:02:19.608Z,1.73
2023-03-17T13:04:58.143Z,0.80
2023-03-17T13:07:28.462Z,1.13
2023-03-17T13:10:29.288Z,1.10
2023-03-17T13:13:05.724Z,0.95
2023-03-17T13:15:54.146Z,1.05
2023-03-17T13:18:50.548Z,1.25
2023-03-17T13:21:29.164Z,1.00
2023-03-17T13:24:37.155Z,1.10
2023-03-17T13:27:05.687Z,1.20
2023-03-17T13:29:47.792Z,1.10
2023-03-17T13:32:39.847Z,1.08
2023-03-17T13:35:22.665Z,1.40
2023-03-17T13:38:11.466Z,1.23
2023-03-17T13:40:48.837Z,1.15
2023-03-17T13:43:41.875Z,1.10
2023-03-17T13:46:24.457Z,1.25
2023-03-17T13:48:54.793Z,0.98
2023-03-17T13:51:24.930Z,0.98
2023-03-17T13:53:58.154Z,0.75
2023-03-17T13:56:30.419Z,1.10
2023-03-17T13:59:13.842Z,1.13
2023-03-17T14:01:47.190Z,1.10
2023-03-17T14:04:21.462Z,1.05
2023-03-17T14:06:52.787Z,1.48
2023-03-17T14:09:38.906Z,1.25
2023-03-17T14:12:14.425Z,1.27
2023-03-17T14:14:50.359Z,0.98
2023-03-17T14:17:24.576Z,1.38
2023-03-17T14:20:06.343Z,1.15
2023-03-17T14:22:39.922Z,1.40
2023-03-17T14:25:17.497Z,1.33
2023-03-17T14:27:47.096Z,1.20
2023-03-17T14:30:20.711Z,2.53
2023-03-17T14:32:51.493Z,1.08
2023-03-17T14:35:19.405Z,1.35
2023-03-17T14:37:47.302Z,1.27
2023-03-17T14:40:25.303Z,0.93
2023-03-17T14:42:53.405Z,1.10
2023-03-17T14:45:30.140Z,1.10
2023-03-17T14:47:58.194Z,1.10
2023-03-17T14:50:29.191Z,1.30
2023-03-17T14:52:59.829Z,1.15
2023-03-17T14:55:36.927Z,1.00
2023-03-17T14:58:10.157Z,0.88
2023-03-17T15:00:44.890Z,0.93
2023-03-17T15:03:20.335Z,1.10
2023-03-17T15:05:49.750Z,1.30
2023-03-17T15:08:40.990Z,1.17
2023-03-17T15:11:18.566Z,1.30
2023-03-17T15:13:46.852Z,1.30
2023-03-17T15:16:19.473Z,1.00
2023-03-17T15:18:47.794Z,1.10
2023-03-17T15:21:24.720Z,1.02
2023-03-17T15:23:52.666Z,1.40
2023-03-17T15:26:32.160Z,0.95
2023-03-17T15:29:01.488Z,1.02
2023-03-17T15:31:30.648Z,1.25
2023-03-17T15:33:59.522Z,1.38
2023-03-17T15:36:32.590Z,1.13
2023-03-17T15:39:01.876Z,1.27
2023-03-17T15:41:31.385Z,1.40
2023-03-17T15:43:59.255Z,1.13
2023-03-17T15:46:31.002Z,1.20
2023-03-17T15:48:59.432Z,1.13
2023-03-17T15:51:27.841Z,1.20
2023-03-17T15:53:55.750Z,1.30
2023-03-17T15:56:23.677Z,1.17
2023-03-17T15:58:52.931Z,1.00
2023-03-17T16:01:21.457Z,1.73
2023-03-17T16:03:50.044Z,1.35
2023-03-17T16:06:21.238Z,1.27
2023-03-17T16:08:50.291Z,1.10
2023-03-17T16:11:20.199Z,1.48
2023-03-17T16:13:48.446Z,1.70
2023-03-17T16:16:27.845Z,1.33
2023-03-17T16:18:56.031Z,1.58
2023-03-17T16:21:23.945Z,1.27
2023-03-17T16:23:51.916Z,1.20
2023-03-17T16:26:19.809Z,1.10
2023-03-17T16:28:49.461Z,1.40
2023-03-17T16:31:24.805Z,1.52
2023-03-17T16:33:53.630Z,1.50
2023-03-17T16:36:22.751Z,1.38
2023-03-17T16:38:51.286Z,1.10
2023-03-17T16:41:21.539Z,1.30
2023-03-17T16:43:52.298Z,1.60
2023-03-17T16:46:23.472Z,1.48
2023-03-17T16:48:52.228Z,1.70
2023-03-17T16:51:20.675Z,1.75
2023-03-17T16:53:48.762Z,2.00
2023-03-17T16:56:20.053Z,1.75
2023-03-17T16:58:48.714Z,1.88
2023-03-17T17:01:21.000Z,1.75
2023-03-17T17:03:50.935Z,1.70
2023-03-17T17:06:20.746Z,1.40
2023-03-17T17:08:49.897Z,1.48
2023-03-17T17:11:19.127Z,1.60
2023-03-17T17:13:49.361Z,1.40
2023-03-17T17:16:22.453Z,1.63
2023-03-17T17:18:51.762Z,1.55
2023-03-17T17:21:19.732Z,1.40
2023-03-17T17:23:47.658Z,1.80
2023-03-17T17:26:15.811Z,1.45
2023-03-17T17:28:43.725Z,1.45
2023-03-17T17:31:12.263Z,1.48
2023-03-17T17:33:40.468Z,1.40
2023-03-17T17:36:15.131Z,1.80
2023-03-17T17:38:43.481Z,1.67
2023-03-17T17:41:12.662Z,1.65
2023-03-17T17:43:41.531Z,1.55
2023-03-17T17:46:17.992Z,2.20
2023-03-17T17:48:46.192Z,1.95
2023-03-17T17:51:15.658Z,1.80
2023-03-17T17:53:43.603Z,1.65
2023-03-17T17:56:14.754Z,1.50
2023-03-17T17:58:43.392Z,1.30
2023-03-17T18:01:13.675Z,1.85
2023-03-17T18:03:42.988Z,1.80
2023-03-17T18:06:11.708Z,1.45
2023-03-17T18:08:43.525Z,1.92
2023-03-17T18:11:11.905Z,3.10
2023-03-17T18:13:41.068Z,1.77
2023-03-17T18:16:10.779Z,1.75
2023-03-17T18:18:42.354Z,1.67
2023-03-17T18:21:10.890Z,2.00
2023-03-17T18:23:46.785Z,2.13
2023-03-17T18:26:16.122Z,2.53
2023-03-17T18:28:44.793Z,2.55
2023-03-17T18:31:16.527Z,2.15
2023-03-17T18:33:46.718Z,2.15
2023-03-17T18:36:14.918Z,2.28
2023-03-17T18:38:44.490Z,2.30
2023-03-17T18:41:12.696Z,2.00
2023-03-17T18:43:41.267Z,2.00
2023-03-17T18:46:09.212Z,2.40
2023-03-17T18:48:37.326Z,2.58
2023-03-17T18:51:05.281Z,2.45
2023-03-17T18:53:34.571Z,2.10
2023-03-17T18:56:03.968Z,2.22
2023-03-17T18:58:31.916Z,1.92
2023-03-17T19:01:00.572Z,2.63
2023-03-17T19:03:29.279Z,2.25
2023-03-17T19:05:58.007Z,2.40
2023-03-17T19:08:26.095Z,2.75
2023-03-17T19:10:54.085Z,2.83
2023-03-17T19:13:23.363Z,2.90
2023-03-17T19:15:52.422Z,2.60
2023-03-17T19:18:20.423Z,2.60
2023-03-17T19:20:48.332Z,1.83
2023-03-17T19:23:16.518Z,2.38
2023-03-17T19:25:44.532Z,2.08
2023-03-17T19:28:12.524Z,2.28
2023-03-17T19:30:42.038Z,1.88
2023-03-17T19:33:10.013Z,1.95
2023-03-17T19:35:38.006Z,1.95
2023-03-17T19:38:08.228Z,1.83
2023-03-17T19:40:36.999Z,1.60
2023-03-17T19:43:05.228Z,1.88
2023-03-17T19:45:33.863Z,1.90
2023-03-17T19:48:03.155Z,1.50
2023-03-17T19:50:32.864Z,1.90
2023-03-17T19:53:01.093Z,1.73
2023-03-17T19:55:29.610Z,2.05
2023-03-17T19:57:57.611Z,1.63
2023-03-17T20:00:26.050Z,1.52
2023-03-17T20:02:53.999Z,1.70
2023-03-17T20:05:23.305Z,1.85
2023-03-17T20:07:51.387Z,2.22
2023-03-17T20:10:19.448Z,1.88
2023-03-17T20:12:47.327Z,2.28
2023-03-17T20:15:16.575Z,2.20
2023-03-17T20:17:44.493Z,2.20
2023-03-17T20:20:14.441Z,2.13
2023-03-17T20:22:44.050Z,1.75
2023-03-17T20:25:12.419Z,2.13
2023-03-17T20:27:40.717Z,2.20
2023-03-17T20:30:12.315Z,1.95
2023-03-17T20:32:40.515Z,2.33
2023-03-17T20:35:09.212Z,1.83
2023-03-17T20:37:37.356Z,1.90
2023-03-17T20:40:09.857Z,1.60
2023-03-17T20:42:38.277Z,1.80
2023-03-17T20:45:07.488Z,1.70
2023-03-17T20:47:36.169Z,1.50
2023-03-17T20:50:04.673Z,1.92
2023-03-17T20:52:32.603Z,1.60
2023-03-17T20:55:00.500Z,1.60
2023-03-17T20:57:30.292Z,1.92
2023-03-17T20:59:58.354Z,1.80
2023-03-17T21:02:26.330Z,1.60
2023-03-17T21:04:54.240Z,1.38
2023-03-17T21:07:23.238Z,2.03
2023-03-17T21:09:51.935Z,1.75
2023-03-17T21:12:21.299Z,1.70
2023-03-17T21:14:52.229Z,1.60
2023-03-17T21:17:20.706Z,1.50
2023-03-17T21:19:48.620Z,1.63
2023-03-17T21:22:17.684Z,1.50
2023-03-17T21:24:45.600Z,1.73
2023-03-17T21:27:14.089Z,1.77
2023-03-17T21:29:42.016Z,1.67
2023-03-17T21:32:11.462Z,1.67
2023-03-17T21:34:39.520Z,1.85
2023-03-17T21:37:07.825Z,2.03
2023-03-17T21:39:36.234Z,1.90
2023-03-17T21:42:05.278Z,2.00
2023-03-17T21:44:33.463Z,2.15
2023-03-17T21:47:02.586Z,2.53
2023-03-17T21:49:31.880Z,1.92
2023-03-17T21:51:59.834Z,1.80
2023-03-17T21:54:28.407Z,2.00
2023-03-17T21:56:56.578Z,1.70
2023-03-17T21:59:24.914Z,1.65
2023-03-17T22:01:53.385Z,2.10
2023-03-17T22:04:21.320Z,1.73
2023-03-17T22:06:52.229Z,1.83
2023-03-17T22:09:20.676Z,1.67
2023-03-17T22:11:49.713Z,1.60
2023-03-17T22:14:20.640Z,1.70
2023-03-17T22:16:49.189Z,1.58
2023-03-17T22:19:20.644Z,1.73
2023-03-17T22:21:50.512Z,1.50
2023-03-17T22:24:18.507Z,1.70
2023-03-17T22:26:46.614Z,1.75
2023-03-17T22:29:15.188Z,1.83
2023-03-17T22:31:43.114Z,1.50
2023-03-17T22:34:11.057Z,1.80
2023-03-17T22:36:38.952Z,1.88
2023-03-17T22:39:10.576Z,1.52
2023-03-17T22:41:39.175Z,1.70
2023-03-17T22:44:09.109Z,1.65
2023-03-17T22:46:37.456Z,1.80
2023-03-17T22:49:05.990Z,1.88
2023-03-17T22:51:33.915Z,1.92
2023-03-17T22:54:02.082Z,1.95
2023-03-17T22:56:31.389Z,1.80
2023-03-17T22:58:59.385Z,1.77
2023-03-17T23:01:27.456Z,2.08
2023-03-17T23:03:56.316Z,2.13
2023-03-17T23:06:24.609Z,1.83
2023-03-17T23:08:52.955Z,1.75
2023-03-17T23:11:24.720Z,2.03
2023-03-17T23:13:54.858Z,1.92
2023-03-17T23:16:23.178Z,2.13
2023-03-17T23:18:51.534Z,2.00
2023-03-17T23:21:24.663Z,2.08
2023-03-17T23:23:52.564Z,2.42
2023-03-17T23:26:20.609Z,2.10
2023-03-17T23:28:48.614Z,2.10
2023-03-17T23:31:19.354Z,1.92
2023-03-17T23:33:47.945Z,2.05
2023-03-17T23:36:16.272Z,2.13
2023-03-17T23:38:45.538Z,2.10
2023-03-17T23:41:14.540Z,2.05
2023-03-17T23:43:44.031Z,2.03
2023-03-17T23:46:13.086Z,2.03
2023-03-17T23:48:43.029Z,2.05
2023-03-17T23:51:12.396Z,1.65
2023-03-17T23:53:41.742Z,1.80
2023-03-17T23:56:11.544Z,2.10
2023-03-17T23:58:39.936Z,1.77
